createdAt,value
2024-01-06T00:01:13.859Z,14.18
2024-01-06T00:03:46.216Z,16.30
2024-01-06T00:06:15.559Z,14.98
2024-01-06T00:08:42.840Z,14.02
2024-01-06T00:11:10.980Z,15.68
2024-01-06T00:13:40.562Z,14.95
2024-01-06T00:16:08.010Z,15.45
2024-01-06T00:18:35.302Z,15.82
2024-01-06T00:21:02.896Z,16.73
2024-01-06T00:23:29.965Z,15.90
2024-01-06T00:25:57.928Z,16.02
2024-01-06T00:28:25.147Z,16.27
2024-01-06T00:30:52.671Z,17.17
2024-01-06T00:33:19.959Z,15.82
2024-01-06T00:35:47.020Z,15.15
2024-01-06T00:38:14.235Z,16.60
2024-01-06T00:40:41.532Z,15.75
2024-01-06T00:43:08.561Z,16.40
2024-01-06T00:45:35.910Z,16.40
2024-01-06T00:48:03.038Z,17.15
2024-01-06T00:50:30.274Z,16.48
2024-01-06T00:52:57.535Z,16.38
2024-01-06T00:55:25.739Z,15.85
2024-01-06T00:57:52.953Z,16.90
2024-01-06T01:00:20.418Z,16.38
2024-01-06T01:02:47.541Z,17.08
2024-01-06T01:05:14.914Z,16.73
2024-01-06T01:07:42.100Z,16.17
2024-01-06T01:10:10.329Z,15.15
2024-01-06T01:12:37.919Z,16.10
2024-01-06T01:15:05.298Z,14.98
2024-01-06T01:17:32.527Z,15.93
2024-01-06T01:19:59.749Z,15.27
2024-01-06T01:22:27.062Z,15.90
2024-01-06T01:24:54.216Z,15.00
2024-01-06T01:27:21.393Z,15.50
2024-01-06T01:29:49.797Z,14.70
2024-01-06T01:32:20.520Z,15.13
2024-01-06T01:34:47.888Z,15.25
2024-01-06T01:37:15.333Z,14.73
2024-01-06T01:39:42.608Z,14.77
2024-01-06T01:42:09.993Z,15.40
2024-01-06T01:44:37.108Z,14.50
2024-01-06T01:47:06.306Z,15.10
2024-01-06T01:49:34.237Z,16.38
2024-01-06T01:52:01.631Z,15.45
2024-01-06T01:54:28.982Z,15.88
2024-01-06T01:56:56.189Z,15.02
2024-01-06T01:59:23.453Z,15.40
2024-01-06T02:01:51.177Z,14.95
2024-01-06T02:04:18.553Z,15.23
2024-01-06T02:06:45.776Z,15.45
2024-01-06T02:09:13.168Z,15.88
2024-01-06T02:11:40.373Z,15.40
2024-01-06T02:14:07.885Z,17.02
2024-01-06T02:16:34.981Z,16.42
2024-01-06T02:19:02.582Z,16.33
2024-01-06T02:21:32.665Z,15.00
2024-01-06T02:26:26.935Z,15.73
2024-01-06T02:28:54.011Z,16.20
2024-01-06T02:31:21.179Z,14.98
2024-01-06T02:33:48.598Z,15.57
2024-01-06T02:36:15.839Z,15.15
2024-01-06T02:38:43.069Z,15.32
2024-01-06T02:41:10.133Z,15.82
2024-01-06T02:43:37.256Z,13.90
2024-01-06T02:46:04.517Z,15.15
2024-01-06T02:48:32.316Z,16.05
2024-01-06T02:50:59.505Z,15.40
2024-01-06T02:53:26.762Z,14.93
2024-01-06T02:55:54.107Z,14.57
2024-01-06T02:58:21.440Z,14.52
2024-01-06T03:00:48.788Z,14.02
2024-01-06T03:03:16.289Z,14.65
2024-01-06T03:05:43.657Z,14.35
2024-01-06T03:08:10.857Z,13.60
2024-01-06T03:10:39.545Z,14.55
2024-01-06T03:13:06.856Z,13.82
2024-01-06T03:15:33.974Z,13.95
2024-01-06T03:18:01.156Z,13.32
2024-01-06T03:20:28.430Z,13.23
2024-01-06T03:22:55.561Z,13.18
2024-01-06T03:25:22.811Z,12.55
2024-01-06T03:27:50.068Z,12.80
2024-01-06T03:30:17.485Z,13.27
2024-01-06T03:32:44.903Z,13.18
2024-01-06T03:35:12.021Z,13.55
2024-01-06T03:37:39.140Z,12.98
2024-01-06T03:40:06.919Z,12.65
2024-01-06T03:42:34.090Z,12.57
2024-01-06T03:45:01.294Z,13.05
2024-01-06T03:47:28.388Z,13.65
2024-01-06T03:49:55.765Z,12.80
2024-01-06T03:52:23.650Z,12.52
2024-01-06T03:54:51.003Z,12.38
2024-01-06T03:57:18.212Z,12.77
2024-01-06T03:59:45.299Z,13.00
2024-01-06T04:02:12.444Z,12.90
2024-01-06T04:04:39.593Z,12.73
2024-01-06T04:07:08.237Z,13.23
2024-01-06T04:09:35.336Z,13.98
2024-01-06T04:12:02.803Z,13.25
2024-01-06T04:14:30.081Z,13.55
2024-01-06T04:16:58.225Z,13.52
2024-01-06T04:19:25.458Z,14.25
2024-01-06T04:21:52.848Z,13.32
2024-01-06T04:24:20.158Z,12.95
2024-01-06T04:26:47.365Z,13.77
2024-01-06T04:29:14.590Z,12.55
2024-01-06T04:31:42.953Z,12.82
2024-01-06T04:34:10.335Z,12.70
2024-01-06T04:36:38.022Z,12.55
2024-01-06T04:39:05.311Z,13.07
2024-01-06T04:41:32.602Z,13.05
2024-01-06T04:43:59.647Z,12.55
2024-01-06T04:46:26.967Z,12.88
2024-01-06T04:48:54.232Z,12.80
2024-01-06T04:51:21.681Z,11.05
2024-01-06T04:53:49.129Z,12.98
2024-01-06T04:56:16.157Z,12.18
2024-01-06T04:58:43.410Z,12.48
2024-01-06T05:01:10.731Z,11.95
2024-01-06T05:03:38.055Z,12.77
2024-01-06T05:06:05.596Z,13.07
2024-01-06T05:08:32.748Z,12.65
2024-01-06T05:11:00.985Z,13.50
2024-01-06T05:13:28.136Z,12.68
2024-01-06T05:15:55.751Z,13.70
2024-01-06T05:18:23.006Z,12.25
2024-01-06T05:20:50.178Z,12.80
2024-01-06T05:23:17.315Z,13.48
2024-01-06T05:25:44.449Z,12.45
2024-01-06T05:28:11.607Z,13.07
2024-01-06T05:30:39.030Z,13.32
2024-01-06T05:33:06.375Z,11.88
2024-01-06T05:35:33.539Z,12.57
2024-01-06T05:38:00.671Z,12.55
2024-01-06T05:40:28.086Z,12.15
2024-01-06T05:42:57.098Z,12.90
2024-01-06T05:45:26.246Z,13.80
2024-01-06T05:47:54.801Z,13.25
2024-01-06T05:50:22.225Z,13.00
2024-01-06T05:52:50.332Z,11.80
2024-01-06T05:55:17.486Z,12.88
2024-01-06T05:57:47.684Z,12.05
2024-01-06T06:00:15.569Z,12.45
2024-01-06T06:02:42.816Z,12.25
2024-01-06T06:05:10.494Z,12.40
2024-01-06T06:07:40.970Z,11.13
2024-01-06T06:10:10.460Z,11.85
2024-01-06T06:12:38.705Z,11.57
2024-01-06T06:15:06.596Z,11.35
2024-01-06T06:17:34.489Z,11.88
2024-01-06T06:20:01.701Z,11.07
2024-01-06T06:22:31.806Z,11.18
2024-01-06T06:25:02.370Z,11.60
2024-01-06T06:27:29.820Z,11.02
2024-01-06T06:30:00.153Z,12.23
2024-01-06T06:32:27.487Z,11.65
2024-01-06T06:34:54.667Z,10.85
2024-01-06T06:37:22.447Z,12.07
2024-01-06T06:39:50.352Z,10.85
2024-01-06T06:42:17.703Z,11.10
2024-01-06T06:44:48.379Z,11.65
2024-01-06T06:47:15.672Z,11.90
2024-01-06T06:49:43.024Z,10.50
2024-01-06T06:52:10.650Z,11.25
2024-01-06T06:54:38.024Z,11.52
2024-01-06T06:57:05.472Z,10.45
2024-01-06T06:59:32.617Z,11.48
2024-01-06T07:02:00.012Z,11.18
2024-01-06T07:04:28.319Z,11.82
2024-01-06T07:06:55.537Z,11.45
2024-01-06T07:09:24.981Z,11.23
2024-01-06T07:11:52.280Z,12.43
2024-01-06T07:14:19.380Z,11.38
2024-01-06T07:16:46.677Z,12.10
2024-01-06T07:19:14.043Z,11.40
2024-01-06T07:21:41.298Z,12.13
2024-01-06T07:24:08.564Z,12.93
2024-01-06T07:26:35.796Z,11.82
2024-01-06T07:29:03.218Z,12.90
2024-01-06T07:31:30.529Z,12.18
2024-01-06T07:33:58.787Z,12.15
2024-01-06T07:36:26.364Z,12.32
2024-01-06T07:38:53.558Z,13.15
2024-01-06T07:41:21.652Z,15.38
2024-01-06T07:43:48.768Z,14.63
2024-01-06T07:46:18.229Z,16.60
2024-01-06T07:48:46.994Z,15.02
2024-01-06T07:51:14.530Z,14.30
2024-01-06T07:53:41.779Z,14.07
2024-01-06T07:56:09.902Z,14.50
2024-01-06T07:58:37.072Z,14.85
2024-01-06T08:01:04.366Z,14.52
2024-01-06T08:03:32.024Z,14.45
2024-01-06T08:05:59.736Z,14.90
2024-01-06T08:08:29.919Z,15.45
2024-01-06T08:10:57.404Z,14.77
2024-01-06T08:13:24.821Z,14.10
2024-01-06T08:15:52.369Z,15.75
2024-01-06T08:18:19.851Z,16.17
2024-01-06T08:20:47.595Z,16.20
2024-01-06T08:23:14.660Z,16.75
2024-01-06T08:25:42.095Z,17.73
2024-01-06T08:28:09.367Z,17.63
2024-01-06T08:30:36.898Z,16.17
2024-01-06T08:33:04.510Z,16.83
2024-01-06T08:35:32.813Z,18.05
2024-01-06T08:38:00.024Z,18.02
2024-01-06T08:40:28.577Z,17.42
2024-01-06T08:42:55.658Z,18.27
2024-01-06T08:45:24.023Z,17.95
2024-01-06T08:47:51.382Z,17.40
2024-01-06T08:50:18.465Z,17.65
2024-01-06T08:52:45.489Z,18.95
2024-01-06T08:55:12.666Z,17.90
2024-01-06T08:57:39.832Z,19.38
2024-01-06T09:00:07.637Z,19.08
2024-01-06T09:02:36.644Z,17.73
2024-01-06T09:05:04.101Z,19.70
2024-01-06T09:07:33.805Z,20.48
2024-01-06T09:10:01.983Z,19.10
2024-01-06T09:12:29.263Z,19.02
2024-01-06T09:14:56.530Z,21.05
2024-01-06T09:17:24.182Z,21.58
2024-01-06T09:19:51.536Z,21.63
2024-01-06T09:22:18.574Z,22.35
2024-01-06T09:24:45.801Z,21.45
2024-01-06T09:27:14.357Z,24.25
2024-01-06T09:29:41.781Z,24.63
2024-01-06T09:32:08.933Z,25.77
2024-01-06T09:34:40.088Z,23.42
2024-01-06T09:37:07.531Z,23.27
2024-01-06T09:39:34.912Z,23.10
2024-01-06T09:42:02.775Z,24.00
2024-01-06T09:44:29.856Z,24.35
2024-01-06T09:47:01.597Z,23.83
2024-01-06T09:49:31.708Z,23.90
2024-01-06T09:52:01.023Z,25.77
2024-01-06T09:54:35.014Z,24.08
2024-01-06T09:57:07.462Z,22.77
2024-01-06T09:59:36.277Z,24.02
2024-01-06T10:02:06.565Z,25.48
2024-01-06T10:04:34.430Z,27.25
2024-01-06T10:07:01.732Z,27.55
2024-01-06T10:09:29.984Z,33.58
2024-01-06T10:12:06.869Z,27.15
2024-01-06T10:14:34.529Z,30.50
2024-01-06T10:17:03.414Z,26.88
2024-01-06T10:19:36.139Z,26.02
2024-01-06T10:22:04.587Z,27.58
2024-01-06T10:24:33.169Z,27.52
2024-01-06T10:27:00.619Z,27.17
2024-01-06T10:29:28.564Z,26.17
2024-01-06T10:31:56.682Z,26.05
2024-01-06T10:34:25.077Z,28.48
2024-01-06T10:36:56.046Z,27.83
2024-01-06T10:39:23.463Z,28.45
2024-01-06T10:41:51.134Z,28.60
2024-01-06T10:44:21.871Z,26.92
2024-01-06T10:46:51.127Z,27.17
2024-01-06T10:49:19.471Z,26.38
2024-01-06T10:51:48.721Z,26.52
2024-01-06T10:54:17.062Z,28.23
2024-01-06T10:56:44.749Z,27.55
2024-01-06T10:59:24.181Z,28.52
2024-01-06T11:01:55.463Z,30.02
2024-01-06T11:04:24.492Z,29.38
2024-01-06T11:06:52.050Z,30.08
2024-01-06T11:09:41.037Z,30.67
2024-01-06T11:12:08.886Z,39.85
2024-01-06T11:14:38.905Z,35.28
2024-01-06T11:19:37.337Z,35.75
2024-01-06T11:22:33.633Z,34.03
2024-01-06T11:25:15.733Z,35.15
2024-01-06T11:27:47.166Z,33.80
2024-01-06T11:30:27.879Z,34.30
2024-01-06T11:33:00.460Z,35.05
2024-01-06T11:35:31.610Z,35.13
2024-01-06T11:38:02.454Z,36.75
2024-01-06T11:40:34.896Z,37.25
2024-01-06T11:43:21.837Z,36.75
2024-01-06T11:45:48.949Z,39.85
2024-01-06T11:48:17.347Z,46.47
2024-01-06T11:50:44.819Z,39.00
2024-01-06T11:53:12.338Z,37.60
2024-01-06T11:55:44.021Z,37.30
2024-01-06T11:58:11.473Z,34.17
2024-01-06T12:00:41.535Z,34.47
2024-01-06T12:03:09.659Z,34.60
2024-01-06T12:05:37.213Z,34.17
2024-01-06T12:08:08.743Z,34.15
2024-01-06T12:10:37.187Z,34.47
2024-01-06T12:13:06.876Z,35.38
2024-01-06T12:15:34.471Z,35.88
2024-01-06T12:18:05.379Z,33.97
2024-01-06T12:20:32.602Z,34.63
2024-01-06T12:23:01.688Z,35.58
2024-01-06T12:25:40.461Z,36.00
2024-01-06T12:28:09.060Z,37.65
2024-01-06T12:30:37.376Z,36.08
2024-01-06T12:33:05.515Z,36.47
2024-01-06T12:35:32.808Z,33.15
2024-01-06T12:37:59.998Z,32.40
2024-01-06T12:40:27.927Z,36.38
2024-01-06T12:42:55.073Z,36.70
2024-01-06T12:45:22.214Z,35.85
2024-01-06T12:47:49.555Z,35.03
2024-01-06T12:50:16.921Z,35.20
2024-01-06T12:52:45.515Z,34.00
2024-01-06T12:55:13.122Z,35.88
2024-01-06T12:57:40.442Z,39.75
2024-01-06T13:00:13.495Z,39.90
2024-01-06T13:02:40.832Z,40.65
2024-01-06T13:05:10.643Z,41.15
2024-01-06T13:07:38.573Z,39.05
2024-01-06T13:10:06.626Z,36.47
2024-01-06T13:12:34.115Z,38.55
2024-01-06T13:15:02.407Z,34.05
2024-01-06T13:17:29.779Z,32.13
2024-01-06T13:19:57.767Z,30.63
2024-01-06T13:22:27.705Z,29.08
2024-01-06T13:24:55.029Z,28.33
2024-01-06T13:27:22.571Z,28.52
2024-01-06T13:29:50.487Z,26.00
2024-01-06T13:32:19.862Z,24.55
2024-01-06T13:34:47.504Z,24.77
2024-01-06T13:37:14.805Z,24.85
2024-01-06T13:39:41.947Z,23.25
2024-01-06T13:42:09.165Z,23.58
2024-01-06T13:44:36.305Z,23.42
2024-01-06T13:47:05.240Z,22.42
2024-01-06T13:49:32.499Z,22.35
2024-01-06T13:51:59.794Z,23.02
2024-01-06T13:54:27.224Z,24.52
2024-01-06T13:56:54.411Z,23.02
2024-01-06T13:59:21.702Z,24.80
2024-01-06T14:01:49.240Z,23.02
2024-01-06T14:04:18.472Z,24.02
2024-01-06T14:06:50.470Z,23.33
2024-01-06T14:09:17.979Z,23.10
2024-01-06T14:11:45.140Z,22.80
2024-01-06T14:14:12.908Z,22.83
2024-01-06T14:16:40.116Z,23.35
2024-01-06T14:19:07.444Z,23.15
2024-01-06T14:21:34.741Z,23.13
2024-01-06T14:24:02.712Z,22.77
2024-01-06T14:26:29.769Z,23.40
2024-01-06T14:28:57.133Z,22.48
2024-01-06T14:31:24.416Z,23.17
2024-01-06T14:33:51.785Z,25.40
2024-01-06T14:36:19.606Z,25.30
2024-01-06T14:38:47.734Z,27.38
2024-01-06T14:41:14.956Z,26.17
2024-01-06T14:43:42.144Z,29.10
2024-01-06T14:46:09.307Z,30.30
2024-01-06T14:48:36.804Z,29.95
2024-01-06T14:51:05.998Z,28.85
2024-01-06T14:53:36.750Z,28.90
2024-01-06T14:56:05.117Z,26.23
2024-01-06T14:58:32.442Z,25.67
2024-01-06T15:01:01.237Z,24.73
2024-01-06T15:03:31.919Z,25.40
2024-01-06T15:05:59.396Z,26.60
2024-01-06T15:08:28.071Z,29.20
2024-01-06T15:10:58.845Z,25.42
2024-01-06T15:13:25.975Z,25.35
2024-01-06T15:15:55.901Z,24.52
2024-01-06T15:18:24.958Z,23.95
2024-01-06T15:20:52.144Z,24.83
2024-01-06T15:23:20.493Z,25.77
2024-01-06T15:25:48.262Z,27.02
2024-01-06T15:28:15.393Z,27.05
2024-01-06T15:30:42.497Z,26.55
2024-01-06T15:33:09.855Z,27.75
2024-01-06T15:35:37.038Z,25.95
2024-01-06T15:38:04.255Z,27.48
2024-01-06T15:40:32.210Z,28.88
2024-01-06T15:42:59.845Z,27.40
2024-01-06T15:45:27.069Z,28.25
2024-01-06T15:47:54.832Z,30.10
2024-01-06T15:50:22.292Z,26.20
2024-01-06T15:52:49.683Z,24.88
2024-01-06T15:55:17.558Z,24.95
2024-01-06T15:57:45.283Z,24.77
2024-01-06T16:00:13.491Z,23.63
2024-01-06T16:02:40.862Z,24.67
2024-01-06T16:05:11.311Z,25.55
2024-01-06T16:07:38.901Z,21.75
2024-01-06T16:10:06.745Z,19.02
2024-01-06T16:12:34.280Z,16.00
2024-01-06T16:15:01.333Z,14.85
2024-01-06T16:17:28.721Z,16.17
2024-01-06T16:19:56.281Z,16.67
2024-01-06T16:22:23.647Z,17.77
2024-01-06T16:24:50.913Z,20.33
2024-01-06T16:27:18.530Z,25.50
2024-01-06T16:29:45.746Z,25.85
2024-01-06T16:32:12.924Z,25.27
2024-01-06T16:34:42.955Z,25.75
2024-01-06T16:37:10.238Z,26.05
2024-01-06T16:39:37.382Z,28.15
2024-01-06T16:42:04.777Z,26.77
2024-01-06T16:44:33.980Z,27.83
2024-01-06T16:47:01.639Z,26.20
2024-01-06T16:49:29.283Z,28.63
2024-01-06T16:51:57.161Z,25.90
2024-01-06T16:54:24.547Z,24.15
2024-01-06T16:56:51.971Z,24.45
2024-01-06T16:59:19.410Z,25.27
2024-01-06T17:01:46.755Z,21.23
2024-01-06T17:04:18.371Z,16.27
2024-01-06T17:06:45.884Z,11.07
2024-01-06T17:09:15.395Z,16.73
2024-01-06T17:11:42.676Z,9.80
2024-01-06T17:14:09.823Z,7.97
2024-01-06T17:16:38.005Z,5.65
2024-01-06T17:19:06.657Z,5.88
2024-01-06T17:21:34.768Z,6.15
2024-01-06T17:24:02.093Z,4.35
2024-01-06T17:26:29.426Z,4.30
2024-01-06T17:28:57.399Z,4.53
2024-01-06T17:31:25.200Z,4.13
2024-01-06T17:33:52.777Z,4.10
2024-01-06T17:36:20.392Z,3.83
2024-01-06T17:38:51.137Z,4.10
2024-01-06T17:41:18.475Z,3.75
2024-01-06T17:43:45.844Z,4.50
2024-01-06T17:46:13.234Z,3.78
2024-01-06T17:48:40.699Z,4.10
2024-01-06T17:51:07.961Z,3.58
2024-01-06T17:53:35.503Z,3.58
2024-01-06T17:56:02.919Z,3.67
2024-01-06T17:58:30.401Z,3.65
2024-01-06T18:00:58.099Z,3.65
2024-01-06T18:03:25.332Z,3.90
2024-01-06T18:05:53.401Z,4.10
2024-01-06T18:08:20.439Z,3.80
2024-01-06T18:10:47.780Z,3.80
2024-01-06T18:13:15.018Z,4.25
2024-01-06T18:15:42.303Z,3.58
2024-01-06T18:18:09.483Z,4.10
2024-01-06T18:20:36.674Z,4.00
2024-01-06T18:23:06.994Z,3.97
2024-01-06T18:25:36.078Z,3.90
2024-01-06T18:28:03.458Z,3.90
2024-01-06T18:30:31.249Z,3.97
2024-01-06T18:32:59.710Z,3.33
2024-01-06T18:35:27.073Z,3.72
2024-01-06T18:37:54.472Z,3.33
2024-01-06T18:40:22.216Z,3.10
2024-01-06T18:42:50.112Z,2.97
2024-01-06T18:45:18.349Z,3.80
2024-01-06T18:47:46.852Z,3.50
2024-01-06T18:50:14.312Z,3.25
2024-01-06T18:52:41.510Z,3.00
2024-01-06T18:55:09.654Z,3.20
2024-01-06T18:57:37.474Z,3.50
2024-01-06T19:00:07.329Z,3.38
2024-01-06T19:02:34.607Z,3.28
2024-01-06T19:05:02.021Z,4.63
2024-01-06T19:07:29.517Z,3.53
2024-01-06T19:09:56.655Z,3.50
2024-01-06T19:12:23.926Z,3.25
2024-01-06T19:14:51.254Z,3.33
2024-01-06T19:17:20.851Z,3.13
2024-01-06T19:19:47.807Z,3.15
2024-01-06T19:22:15.204Z,4.10
2024-01-06T19:24:44.010Z,4.68
2024-01-06T19:27:12.013Z,4.10
2024-01-06T19:29:44.026Z,7.50
2024-01-06T19:32:11.794Z,6.70
2024-01-06T19:34:39.546Z,7.70
2024-01-06T19:37:07.524Z,7.30
2024-01-06T19:39:34.688Z,7.65
2024-01-06T19:42:02.405Z,7.82
2024-01-06T19:44:31.917Z,7.95
2024-01-06T19:47:02.029Z,7.70
2024-01-06T19:49:29.566Z,4.70
2024-01-06T19:51:57.094Z,3.42
2024-01-06T19:54:25.173Z,2.72
2024-01-06T19:56:52.759Z,2.97
2024-01-06T19:59:19.922Z,3.28
2024-01-06T20:01:47.332Z,3.25
2024-01-06T20:04:14.702Z,3.95
2024-01-06T20:06:42.273Z,3.78
2024-01-06T20:09:12.784Z,3.80
2024-01-06T20:11:40.782Z,3.88
2024-01-06T20:14:07.875Z,4.20
2024-01-06T20:16:35.871Z,3.13
2024-01-06T20:19:03.191Z,3.28
2024-01-06T20:21:30.545Z,3.20
2024-01-06T20:23:57.734Z,3.22
2024-01-06T20:26:27.345Z,2.80
2024-01-06T20:28:54.480Z,3.20
2024-01-06T20:31:21.743Z,4.57
2024-01-06T20:33:49.149Z,5.10
2024-01-06T20:36:26.036Z,5.13
2024-01-06T20:38:53.476Z,8.50
2024-01-06T20:41:20.500Z,6.03
2024-01-06T20:43:47.963Z,6.18
2024-01-06T20:46:23.416Z,6.60
2024-01-06T20:48:50.729Z,8.05
2024-01-06T20:51:21.528Z,7.00
2024-01-06T20:53:50.601Z,7.55
2024-01-06T20:56:18.226Z,7.82
2024-01-06T20:58:45.592Z,6.78
2024-01-06T21:01:13.495Z,6.07
2024-01-06T21:03:40.888Z,6.57
2024-01-06T21:06:08.345Z,5.60
2024-01-06T21:08:36.518Z,6.13
2024-01-06T21:11:08.954Z,5.75
2024-01-06T21:13:39.103Z,6.63
2024-01-06T21:18:33.941Z,6.32
2024-01-06T21:21:01.441Z,6.30
2024-01-06T21:23:39.577Z,6.20
2024-01-06T21:26:12.396Z,6.07
2024-01-06T21:28:39.581Z,7.57
2024-01-06T21:31:06.849Z,7.75
2024-01-06T21:33:34.116Z,7.13
2024-01-06T21:36:01.365Z,6.65
2024-01-06T21:38:28.588Z,7.18
2024-01-06T21:40:55.931Z,7.55
2024-01-06T21:43:22.859Z,6.63
2024-01-06T21:45:50.241Z,6.13
2024-01-06T21:48:17.400Z,6.38
2024-01-06T21:50:45.070Z,6.90
2024-01-06T21:53:12.046Z,6.03
2024-01-06T21:55:39.186Z,6.10
2024-01-06T21:58:06.304Z,6.25
2024-01-06T22:00:33.572Z,6.10
2024-01-06T22:03:00.698Z,3.90
2024-01-06T22:05:27.920Z,4.63
2024-01-06T22:07:57.066Z,3.40
2024-01-06T22:10:25.046Z,3.58
2024-01-06T22:12:52.251Z,2.88
2024-01-06T22:15:19.567Z,2.90
2024-01-06T22:17:47.017Z,3.10
2024-01-06T22:20:14.309Z,3.03
2024-01-06T22:22:41.368Z,3.33
2024-01-06T22:25:12.153Z,3.00
2024-01-06T22:27:39.455Z,2.58
2024-01-06T22:30:07.114Z,2.92
2024-01-06T22:32:36.937Z,2.67
2024-01-06T22:35:04.916Z,3.88
2024-01-06T22:37:32.027Z,3.70
2024-01-06T22:39:59.207Z,3.17
2024-01-06T22:42:26.318Z,4.13
2024-01-06T22:44:55.892Z,5.22
2024-01-06T22:47:23.165Z,4.93
2024-01-06T22:49:50.497Z,5.15
2024-01-06T22:52:17.533Z,4.28
2024-01-06T22:54:44.731Z,3.63
2024-01-06T22:57:11.951Z,4.53
2024-01-06T22:59:39.193Z,2.67
2024-01-06T23:02:06.317Z,2.65
2024-01-06T23:04:33.685Z,2.55
2024-01-06T23:07:01.029Z,2.83
2024-01-06T23:09:28.339Z,3.00
2024-01-06T23:11:55.412Z,2.90
2024-01-06T23:14:22.521Z,2.78
2024-01-06T23:16:49.998Z,2.90
2024-01-06T23:19:17.367Z,2.80
2024-01-06T23:21:47.137Z,3.00
2024-01-06T23:24:14.427Z,3.00
2024-01-06T23:26:41.887Z,2.40
2024-01-06T23:29:09.007Z,2.72
2024-01-06T23:31:36.360Z,2.70
2024-01-06T23:34:04.165Z,2.67
2024-01-06T23:36:32.061Z,2.95
2024-01-06T23:38:59.498Z,2.90
2024-01-06T23:41:26.673Z,2.78
2024-01-06T23:43:53.783Z,2.83
2024-01-06T23:46:25.362Z,2.50
2024-01-06T23:48:54.707Z,3.70
2024-01-06T23:51:22.044Z,2.60
2024-01-06T23:53:52.315Z,2.63
2024-01-06T23:56:21.533Z,3.15
2024-01-06T23:58:48.600Z,3.05
